createdAt,value
2022-12-28T00:00:12.101Z,21.8
2022-12-28T00:05:35.126Z,21.8
2022-12-28T00:11:47.472Z,21.8
2022-12-28T00:17:10.283Z,21.8
2022-12-28T00:22:32.611Z,21.8
2022-12-28T00:27:56.701Z,21.8
2022-12-28T00:33:21.649Z,21.8
2022-12-28T00:39:25.009Z,21.8
2022-12-28T00:44:54.841Z,21.8
2022-12-28T00:50:17.503Z,21.8
2022-12-28T00:55:40.371Z,21.8
2022-12-28T01:01:03.118Z,21.8
2022-12-28T01:06:10.931Z,21.8
2022-12-28T01:11:33.825Z,21.8
2022-12-28T01:16:57.741Z,21.8
2022-12-28T01:22:06.851Z,21.8
2022-12-28T01:27:29.727Z,21.8
2022-12-28T01:32:52.682Z,21.8
2022-12-28T01:37:59.097Z,21.8
2022-12-28T01:43:29.561Z,21.8
2022-12-28T01:48:52.241Z,21.8
2022-12-28T01:53:59.122Z,21.8
2022-12-28T01:59:07.484Z,21.8
2022-12-28T02:04:15.699Z,22.3
2022-12-28T02:09:21.865Z,24.3
2022-12-28T02:15:22.831Z,27.2
2022-12-28T02:20:29.666Z,28.9
2022-12-28T02:25:49.380Z,30.2
2022-12-28T02:30:56.201Z,31.1
2022-12-28T02:36:20.396Z,31.9
2022-12-28T02:41:27.391Z,32.8
2022-12-28T02:46:49.946Z,33.4
2022-12-28T02:52:12.307Z,34.2
2022-12-28T02:57:19.679Z,34.9
2022-12-28T03:02:28.128Z,35.5
2022-12-28T03:07:56.616Z,36.3
2022-12-28T03:13:21.826Z,36.8
2022-12-28T03:18:13.626Z,37.6
2022-12-28T03:23:20.180Z,38.1
2022-12-28T03:28:42.565Z,38.8
2022-12-28T03:34:04.692Z,39.3
2022-12-28T03:39:27.123Z,39.5
2022-12-28T03:44:49.310Z,39.6
2022-12-28T03:50:35.852Z,39.6
2022-12-28T03:55:58.031Z,39.6
2022-12-28T04:01:20.428Z,39.7
2022-12-28T04:06:44.143Z,39.7
2022-12-28T04:12:06.534Z,39.8
2022-12-28T04:17:34.506Z,39.9
2022-12-28T04:22:56.824Z,39.8
2022-12-28T04:28:18.663Z,39.8
2022-12-28T04:33:09.913Z,39.8
2022-12-28T04:38:01.321Z,39.8
2022-12-28T04:43:37.171Z,39.8
2022-12-28T04:49:02.952Z,39.7
2022-12-28T04:54:10.136Z,39.7
2022-12-28T04:59:48.611Z,39.6
2022-12-28T05:05:22.186Z,39.6
2022-12-28T05:10:29.401Z,39.6
2022-12-28T05:15:43.477Z,39.5
2022-12-28T05:20:50.154Z,39.4
2022-12-28T05:26:18.449Z,39.4
2022-12-28T05:31:41.128Z,39.4
2022-12-28T05:37:04.561Z,39.3
2022-12-28T05:42:13.290Z,39.3
2022-12-28T05:47:41.281Z,39.3
2022-12-28T05:53:11.545Z,39.2
2022-12-28T05:58:35.263Z,39.1
2022-12-28T06:03:47.568Z,39.1
2022-12-28T06:09:12.452Z,39
2022-12-28T06:14:35.362Z,38.9
2022-12-28T06:19:42.881Z,38.9
2022-12-28T06:24:55.893Z,38.9
2022-12-28T06:30:18.736Z,38.8
2022-12-28T06:35:42.844Z,38.8
2022-12-28T06:41:37.515Z,38.8
2022-12-28T06:46:59.958Z,38.7
2022-12-28T06:52:23.053Z,38.6
2022-12-28T06:57:29.960Z,38.6
2022-12-28T07:03:01.205Z,38.5
2022-12-28T07:08:28.993Z,38.4
2022-12-28T07:13:57.604Z,38.4
2022-12-28T07:19:20.761Z,38.4
2022-12-28T07:24:27.743Z,38.3
2022-12-28T07:29:35.189Z,38.3
2022-12-28T07:35:06.060Z,38.2
2022-12-28T07:40:34.443Z,38.1
2022-12-28T07:46:00.981Z,38.1
2022-12-28T07:51:27.822Z,38.1
2022-12-28T07:56:49.963Z,38
2022-12-28T08:02:04.862Z,37.9
2022-12-28T08:07:12.778Z,37.9
2022-12-28T08:12:19.706Z,37.9
2022-12-28T08:17:29.101Z,37.8
2022-12-28T08:22:51.898Z,37.7
2022-12-28T08:27:43.091Z,37.4
2022-12-28T08:32:35.302Z,37.4
2022-12-28T08:37:42.875Z,37.4
2022-12-28T08:42:54.893Z,37.4
2022-12-28T08:48:18.432Z,37.4
2022-12-28T08:53:45.351Z,37.3
2022-12-28T08:58:58.716Z,37.3
2022-12-28T09:04:22.690Z,37.2
2022-12-28T09:09:55.593Z,37.2
2022-12-28T09:15:26.499Z,37.1
2022-12-28T09:20:18.659Z,37.1
2022-12-28T09:25:10.781Z,37
2022-12-28T09:30:34.266Z,37
2022-12-28T09:36:37.640Z,36.9
2022-12-28T09:41:45.421Z,36.9
2022-12-28T09:47:08.566Z,36.8
2022-12-28T09:52:30.992Z,36.8
2022-12-28T09:57:41.835Z,36.8
2022-12-28T10:02:49.434Z,36.7
2022-12-28T10:07:41.978Z,36.7
2022-12-28T10:12:49.307Z,36.6
2022-12-28T10:18:56.028Z,36.6
2022-12-28T10:25:04.832Z,36.5
2022-12-28T10:30:28.227Z,36.4
2022-12-28T10:35:57.334Z,36.4
2022-12-28T10:41:26.699Z,36.4
2022-12-28T11:06:47.399Z,36.1
2022-12-28T11:12:10.201Z,35.9
2022-12-28T11:17:22.659Z,35.8
2022-12-28T11:22:36.760Z,35.6
2022-12-28T11:28:03.950Z,35.6
2022-12-28T11:33:14.219Z,35.5
2022-12-28T11:38:23.630Z,35.4
2022-12-28T11:44:15.316Z,35.3
2022-12-28T11:49:41.065Z,34.7
2022-12-28T11:55:09.431Z,32.6
2022-12-28T12:00:21.761Z,31.3
2022-12-28T12:05:14.717Z,30.6
2022-12-28T12:10:53.223Z,30.2
2022-12-28T12:16:17.584Z,29.9
2022-12-28T12:21:48.740Z,29.6
2022-12-28T12:27:12.301Z,29.4
2022-12-28T12:32:21.565Z,29
2022-12-28T12:37:44.055Z,28.9
2022-12-28T12:43:06.900Z,28.8
2022-12-28T12:48:29.537Z,28.7
2022-12-28T12:53:50.601Z,28.6
2022-12-28T12:59:14.402Z,28.6
2022-12-28T13:04:38.746Z,28.5
2022-12-28T13:10:05.015Z,28.5
2022-12-28T13:15:29.622Z,28.5
2022-12-28T13:21:12.227Z,28.4
2022-12-28T13:26:34.947Z,28.4
2022-12-28T13:32:01.912Z,28.4
2022-12-28T13:37:13.018Z,28.4
2022-12-28T13:42:20.014Z,28.4
2022-12-28T13:47:47.010Z,28.3
2022-12-28T13:53:15.947Z,28.3
2022-12-28T13:59:22.045Z,28.3
2022-12-28T14:05:32.048Z,28.3
2022-12-28T14:11:00.936Z,28.3
2022-12-28T14:16:30.764Z,28.2
2022-12-28T14:21:53.896Z,28.2
2022-12-28T14:27:20.327Z,28.2
2022-12-28T14:32:37.685Z,28.1
2022-12-28T15:15:37.022Z,28.1
2022-12-28T15:20:45.065Z,28
2022-12-28T15:25:56.918Z,28
2022-12-28T15:31:58.234Z,28
2022-12-28T15:37:07.528Z,27.9
2022-12-28T15:42:31.473Z,27.9
2022-12-28T15:47:10.713Z,27.9
2022-12-28T15:52:22.004Z,27.9
2022-12-28T15:57:14.655Z,27.9
2022-12-28T16:02:29.462Z,27.9
2022-12-28T16:07:53.513Z,27.9
2022-12-28T16:13:17.794Z,27.9
2022-12-28T16:18:47.068Z,27.9
2022-12-28T16:44:14.121Z,27.8
2022-12-28T16:49:08.863Z,27.8
2022-12-28T16:54:31.265Z,27.8
2022-12-28T16:59:55.635Z,27.8
2022-12-28T17:05:26.757Z,27.7
2022-12-28T17:10:55.798Z,27.7
2022-12-28T17:16:33.403Z,27.7
2022-12-28T17:21:56.988Z,27.7
2022-12-28T17:27:24.643Z,27.7
2022-12-28T17:32:50.163Z,27.7
2022-12-28T17:38:13.196Z,27.6
2022-12-28T17:43:39.699Z,27.6
2022-12-28T17:48:52.546Z,27.6
2022-12-28T17:54:19.418Z,27.6
2022-12-28T17:59:44.938Z,26.6
2022-12-28T18:05:13.336Z,25.6
2022-12-28T18:10:20.964Z,25.2
2022-12-28T18:15:49.439Z,24.9
2022-12-28T18:21:16.524Z,24.7
2022-12-28T18:26:42.791Z,24.6
2022-12-28T18:31:52.276Z,24.5
2022-12-28T18:37:21.214Z,24.5
2022-12-28T18:42:43.976Z,24.4
2022-12-28T18:47:36.140Z,24.4
2022-12-28T18:52:58.912Z,24.4
2022-12-28T18:58:11.018Z,24.4
2022-12-28T19:04:03.405Z,24.4
2022-12-28T19:09:13.261Z,24.4
2022-12-28T19:14:44.133Z,24.4
2022-12-28T19:20:11.975Z,24.4
2022-12-28T19:25:39.023Z,24.4
2022-12-28T19:31:04.903Z,24.4
2022-12-28T19:36:27.798Z,24.4
2022-12-28T19:41:53.371Z,24.4
2022-12-28T19:47:23.321Z,24.4
2022-12-28T19:52:53.260Z,24.4
2022-12-28T19:58:15.834Z,24.4
2022-12-28T20:03:41.763Z,24.4
2022-12-28T20:09:05.396Z,24.4
2022-12-28T20:14:13.001Z,25.2
2022-12-28T20:19:37.061Z,27.9
2022-12-28T20:25:18.897Z,31.1
2022-12-28T20:30:42.456Z,33.1
2022-12-28T20:35:38.555Z,34.8
2022-12-28T20:40:45.472Z,35.7
2022-12-28T20:45:37.173Z,36.4
2022-12-28T20:50:14.406Z,37.1
2022-12-28T20:55:23.425Z,37.8
2022-12-28T21:00:22.218Z,38.4
2022-12-28T21:05:46.192Z,38.6
2022-12-28T21:10:38.128Z,38.9
2022-12-28T21:15:46.082Z,39.1
2022-12-28T21:20:55.801Z,39.3
2022-12-28T21:26:02.772Z,39.3
2022-12-28T21:31:25.817Z,39.3
2022-12-28T21:36:40.941Z,39.3
2022-12-28T21:42:03.508Z,39.3
2022-12-28T21:46:55.443Z,39.3
2022-12-28T21:52:18.353Z,39.3
2022-12-28T21:57:09.844Z,39.3
2022-12-28T22:02:18.223Z,39.3
2022-12-28T22:07:45.708Z,39.3
2022-12-28T22:12:53.060Z,39.2
2022-12-28T22:18:36.931Z,39.2
2022-12-28T22:24:09.989Z,39.1
2022-12-28T22:29:17.240Z,39.1
2022-12-28T22:34:42.744Z,39
2022-12-28T22:39:49.988Z,38.9
2022-12-28T22:45:13.263Z,38.9
2022-12-28T22:50:41.431Z,38.9
2022-12-28T22:55:35.110Z,38.8
2022-12-28T23:01:00.917Z,38.8
2022-12-28T23:06:24.817Z,38.7
2022-12-28T23:11:53.649Z,38.6
2022-12-28T23:16:45.854Z,38.6
2022-12-28T23:22:09.126Z,38.5
2022-12-28T23:27:00.960Z,38.4
2022-12-28T23:32:08.584Z,38.4
2022-12-28T23:37:16.078Z,38.3
2022-12-28T23:42:38.410Z,38.3
2022-12-28T23:47:32.568Z,38.2
2022-12-28T23:52:42.678Z,38.1
2022-12-28T23:57:49.688Z,38.1
